createdAt,value
2023-01-11T00:02:28.303Z,53.50
2023-01-11T00:07:32.057Z,53.50
2023-01-11T00:12:35.443Z,54.67
2023-01-11T00:17:38.878Z,55.00
2023-01-11T00:22:42.231Z,52.00
2023-01-11T00:27:47.508Z,53.00
2023-01-11T00:32:56.125Z,49.00
2023-01-11T00:37:59.599Z,49.33
2023-01-11T00:43:21.430Z,45.33
2023-01-11T00:48:24.895Z,47.00
2023-01-11T00:53:28.286Z,45.50
2023-01-11T00:58:31.647Z,47.33
2023-01-11T01:03:35.133Z,50.33
2023-01-11T01:08:38.653Z,45.00
2023-01-11T01:14:00.697Z,44.00
2023-01-11T01:19:04.392Z,40.50
2023-01-11T01:24:08.061Z,39.00
2023-01-11T01:29:12.124Z,40.00
2023-01-11T01:34:15.726Z,39.00
2023-01-11T01:39:19.350Z,44.00
2023-01-11T01:45:02.532Z,40.00
2023-01-11T01:50:25.720Z,43.00
2023-01-11T01:55:33.708Z,41.67
2023-01-11T02:00:41.012Z,47.50
2023-01-11T02:05:45.035Z,44.00
2023-01-11T02:10:50.150Z,45.33
2023-01-11T02:16:08.131Z,39.00
2023-01-11T02:21:44.763Z,43.50
2023-01-11T02:27:15.992Z,43.00
2023-01-11T02:32:22.416Z,47.50
2023-01-11T02:37:51.500Z,41.50
2023-01-11T02:43:48.332Z,44.00
2023-01-11T02:49:20.401Z,43.00
2023-01-11T02:54:24.700Z,43.33
2023-01-11T02:59:32.447Z,45.00
2023-01-11T03:04:37.412Z,42.00
2023-01-11T03:09:43.727Z,41.50
2023-01-11T03:15:05.152Z,42.00
2023-01-11T03:20:28.919Z,38.00
2023-01-11T03:25:35.392Z,41.00
2023-01-11T03:31:07.173Z,48.67
2023-01-11T03:36:19.699Z,46.50
2023-01-11T03:41:27.218Z,42.50
2023-01-11T03:46:39.224Z,42.00
2023-01-11T03:51:45.203Z,40.67
2023-01-11T03:57:03.680Z,42.00
2023-01-11T04:02:20.286Z,43.00
2023-01-11T04:07:23.805Z,46.00
2023-01-11T04:12:27.878Z,42.00
2023-01-11T04:17:32.471Z,51.00
2023-01-11T04:22:36.009Z,57.00
2023-01-11T04:27:40.727Z,60.00
2023-01-11T04:32:44.172Z,59.33
2023-01-11T04:37:48.173Z,0.00
2023-01-11T04:42:51.834Z,62.00
2023-01-11T04:47:56.729Z,61.00
2023-01-11T04:53:00.740Z,63.50
2023-01-11T04:58:04.242Z,56.00
2023-01-11T05:03:07.709Z,58.00
2023-01-11T05:08:11.049Z,56.50
2023-01-11T05:13:14.486Z,56.00
2023-01-11T05:18:17.911Z,52.00
2023-01-11T05:23:21.385Z,49.00
2023-01-11T05:28:24.900Z,53.00
2023-01-11T05:33:28.868Z,52.00
2023-01-11T05:38:33.315Z,52.33
2023-01-11T05:43:57.615Z,52.00
2023-01-11T05:49:01.810Z,48.00
2023-01-11T05:54:11.175Z,52.50
2023-01-11T05:59:14.688Z,51.00
2023-01-11T06:04:18.087Z,48.67
2023-01-11T06:09:21.467Z,50.00
2023-01-11T06:14:24.813Z,46.33
2023-01-11T06:19:28.258Z,49.50
2023-01-11T06:24:31.661Z,50.50
2023-01-11T06:29:35.166Z,49.00
2023-01-11T06:34:38.634Z,48.00
2023-01-11T06:39:42.084Z,51.00
2023-01-11T06:44:45.564Z,48.00
2023-01-11T06:49:48.931Z,51.50
2023-01-11T06:54:52.321Z,53.00
2023-01-11T06:59:55.800Z,51.50
2023-01-11T07:04:59.286Z,47.50
2023-01-11T07:10:03.927Z,49.00
2023-01-11T07:15:09.876Z,48.00
2023-01-11T07:20:13.822Z,56.50
2023-01-11T07:25:18.045Z,55.00
2023-01-11T07:30:21.670Z,48.50
2023-01-11T07:35:26.856Z,54.67
2023-01-11T07:40:31.403Z,53.33
2023-01-11T07:45:45.314Z,51.50
2023-01-11T07:50:49.764Z,54.00
2023-01-11T07:55:55.700Z,50.50
2023-01-11T08:01:00.163Z,52.67
2023-01-11T08:06:03.744Z,54.00
2023-01-11T08:11:26.730Z,48.00
2023-01-11T08:16:30.215Z,50.00
2023-01-11T08:21:33.624Z,52.00
2023-01-11T08:26:37.131Z,48.00
2023-01-11T08:31:43.583Z,45.00
2023-01-11T08:36:47.141Z,42.00
2023-01-11T08:41:50.868Z,39.00
2023-01-11T08:46:54.377Z,42.50
2023-01-11T08:51:57.905Z,45.00
2023-01-11T08:57:01.356Z,39.33
2023-01-11T09:02:06.291Z,43.00
2023-01-11T09:07:09.757Z,45.00
2023-01-11T09:12:14.609Z,41.33
2023-01-11T09:17:18.029Z,42.67
2023-01-11T09:22:21.557Z,40.00
2023-01-11T09:27:25.274Z,42.00
2023-01-11T09:32:28.879Z,38.50
2023-01-11T09:37:32.955Z,31.50
2023-01-11T09:42:40.079Z,31.00
2023-01-11T09:48:05.128Z,32.00
2023-01-11T09:53:14.046Z,35.00
2023-01-11T09:58:49.136Z,34.00
2023-01-11T10:04:16.585Z,29.00
2023-01-11T10:18:31.226Z,18.00
2023-01-11T10:20:46.709Z,32.00
2023-01-11T10:25:54.455Z,27.00
2023-01-11T10:30:58.333Z,21.50
2023-01-11T10:36:29.313Z,20.00
2023-01-11T10:42:00.942Z,27.00
2023-01-11T10:47:08.040Z,29.50
2023-01-11T10:52:30.851Z,23.50
2023-01-11T10:58:05.142Z,26.50
2023-01-11T11:03:17.665Z,20.00
2023-01-11T11:08:34.137Z,14.00
2023-01-11T11:13:44.883Z,17.00
2023-01-11T11:18:49.936Z,14.00
2023-01-11T11:24:02.002Z,15.67
2023-01-11T11:29:10.547Z,16.50
2023-01-11T11:34:17.526Z,16.67
2023-01-11T11:39:25.409Z,17.50
2023-01-11T11:44:28.881Z,15.00
2023-01-11T11:49:34.536Z,14.50
2023-01-11T11:54:48.847Z,16.33
2023-01-11T12:00:20.229Z,14.00
2023-01-11T12:05:24.462Z,17.50
2023-01-11T12:10:30.001Z,17.00
2023-01-11T12:15:34.854Z,17.00
2023-01-11T12:20:41.387Z,13.00
2023-01-11T12:26:13.127Z,16.50
2023-01-11T12:31:54.923Z,16.50
2023-01-11T12:37:16.795Z,21.00
2023-01-11T12:42:39.001Z,10.00
2023-01-11T12:48:04.343Z,24.00
2023-01-11T12:53:07.749Z,19.50
2023-01-11T12:58:31.518Z,12.67
2023-01-11T13:03:51.262Z,13.00
2023-01-11T13:08:57.783Z,20.00
2023-01-11T13:14:22.417Z,17.00
2023-01-11T13:19:46.777Z,17.00
2023-01-11T13:24:51.563Z,13.00
2023-01-11T13:29:59.434Z,13.50
2023-01-11T13:35:16.041Z,15.50
2023-01-11T13:40:38.907Z,14.50
2023-01-11T13:45:59.705Z,14.00
2023-01-11T13:51:13.504Z,15.50
2023-01-11T13:56:26.101Z,14.00
2023-01-11T14:01:53.830Z,18.00
2023-01-11T14:07:22.136Z,19.00
2023-01-11T14:12:58.774Z,22.33
2023-01-11T14:18:05.758Z,21.67
2023-01-11T14:23:21.101Z,25.00
2023-01-11T14:29:06.433Z,30.67
2023-01-11T14:34:40.289Z,28.50
2023-01-11T14:39:46.439Z,30.50
2023-01-11T14:45:24.989Z,36.50
2023-01-11T14:50:28.426Z,40.00
2023-01-11T14:55:37.764Z,44.00
2023-01-11T15:00:44.246Z,47.50
2023-01-11T15:05:54.582Z,57.00
2023-01-11T15:10:57.953Z,53.50
2023-01-11T15:16:47.400Z,47.00
2023-01-11T15:21:53.474Z,43.50
2023-01-11T15:26:59.786Z,42.00
2023-01-11T15:32:05.190Z,47.00
2023-01-11T15:37:34.779Z,61.50
2023-01-11T15:42:38.131Z,59.00
2023-01-11T15:47:50.584Z,61.50
2023-01-11T15:53:21.617Z,57.00
2023-01-11T15:58:50.051Z,48.00
2023-01-11T16:04:06.108Z,58.00
2023-01-11T16:09:13.372Z,72.00
2023-01-11T16:14:49.258Z,64.00
2023-01-11T16:19:57.152Z,65.00
2023-01-11T16:25:01.833Z,68.33
2023-01-11T16:30:09.024Z,62.00
2023-01-11T16:35:22.163Z,72.00
2023-01-11T16:40:32.083Z,60.00
2023-01-11T16:45:46.108Z,60.00
2023-01-11T16:51:11.416Z,61.00
2023-01-11T16:56:23.810Z,56.00
2023-01-11T17:01:27.514Z,65.00
2023-01-11T17:06:34.812Z,82.67
2023-01-11T17:11:44.584Z,61.00
2023-01-11T17:16:51.179Z,90.00
2023-01-11T17:22:00.667Z,92.00
2023-01-11T17:27:06.673Z,59.00
2023-01-11T17:32:34.240Z,67.50
2023-01-11T17:37:37.952Z,66.00
2023-01-11T17:43:00.227Z,79.50
2023-01-11T17:48:13.187Z,84.00
2023-01-11T17:53:32.518Z,70.00
2023-01-11T17:58:37.953Z,101.50
2023-01-11T18:03:57.928Z,116.00
2023-01-11T18:09:04.589Z,91.00
2023-01-11T18:14:18.708Z,85.00
2023-01-11T18:19:42.759Z,80.50
2023-01-11T18:24:53.588Z,114.67
2023-01-11T18:30:01.319Z,127.00
2023-01-11T18:35:12.867Z,104.00
2023-01-11T18:40:18.515Z,104.00
2023-01-11T18:45:25.080Z,95.00
2023-01-11T18:50:28.902Z,75.00
2023-01-11T18:55:32.420Z,117.33
2023-01-11T19:00:36.603Z,93.00
2023-01-11T19:05:40.267Z,83.67
2023-01-11T19:10:43.893Z,86.00
2023-01-11T19:15:47.713Z,94.00
2023-01-11T19:20:51.148Z,106.50
2023-01-11T19:25:58.491Z,107.33
2023-01-11T19:31:06.794Z,91.00
2023-01-11T19:36:11.064Z,81.00
2023-01-11T19:41:16.809Z,82.00
2023-01-11T19:46:31.027Z,102.50
2023-01-11T19:51:35.292Z,97.50
2023-01-11T19:56:38.990Z,97.33
2023-01-11T20:01:43.510Z,97.00
2023-01-11T20:06:50.349Z,93.25
2023-01-11T20:11:55.586Z,125.25
2023-01-11T20:16:59.147Z,141.50
2023-01-11T20:22:02.854Z,137.50
2023-01-11T20:27:06.593Z,136.67
2023-01-11T20:32:34.824Z,91.00
2023-01-11T20:37:34.328Z,99.67
2023-01-11T20:42:38.036Z,110.33
2023-01-11T20:47:41.790Z,115.00
2023-01-11T20:52:45.511Z,112.50
2023-01-11T20:57:51.565Z,76.00
2023-01-11T21:02:55.090Z,104.00
2023-01-11T21:07:58.681Z,77.00
2023-01-11T21:13:03.941Z,69.00
2023-01-11T21:18:07.456Z,89.33
2023-01-11T21:23:15.378Z,88.00
2023-01-11T21:28:18.827Z,71.00
2023-01-11T21:33:24.241Z,72.00
2023-01-11T21:38:30.825Z,55.00
2023-01-11T21:43:36.507Z,73.00
2023-01-11T21:48:40.761Z,67.00
2023-01-11T21:53:44.235Z,57.00
2023-01-11T21:58:47.644Z,44.00
2023-01-11T22:03:51.312Z,57.00
2023-01-11T22:08:55.427Z,59.50
2023-01-11T22:13:59.860Z,63.00
2023-01-11T22:19:06.352Z,51.00
2023-01-11T22:24:11.965Z,51.50
2023-01-11T22:29:15.581Z,58.50
2023-01-11T22:34:19.760Z,59.00
2023-01-11T22:39:24.260Z,59.00
2023-01-11T22:44:27.765Z,50.67
2023-01-11T22:49:31.186Z,64.00
2023-01-11T22:54:35.028Z,63.50
2023-01-11T22:59:38.994Z,67.00
2023-01-11T23:04:42.523Z,89.00
2023-01-11T23:09:45.953Z,59.00
2023-01-11T23:14:49.378Z,53.50
2023-01-11T23:19:52.821Z,42.67
2023-01-11T23:24:56.175Z,44.00
2023-01-11T23:29:59.558Z,51.00
2023-01-11T23:35:04.477Z,41.00
2023-01-11T23:40:08.848Z,40.00
2023-01-11T23:45:12.318Z,43.00
2023-01-11T23:50:16.018Z,47.00
2023-01-11T23:55:19.409Z,43.00
